sensor_id;sensor_type;location;lat;lon;timestamp;temperature;humidity
75893;DHT22;64572;50.950;3.676;2023-03-23T00:01:26;12.90;99.90
75893;DHT22;64572;50.950;3.676;2023-03-23T00:03:55;12.90;99.90
75893;DHT22;64572;50.950;3.676;2023-03-23T00:06:26;12.90;99.90
75893;DHT22;64572;50.950;3.676;2023-03-23T00:08:54;12.80;99.90
75893;DHT22;64572;50.950;3.676;2023-03-23T00:11:26;12.80;99.90
75893;DHT22;64572;50.950;3.676;2023-03-23T00:13:55;12.80;99.90
75893;DHT22;64572;50.950;3.676;2023-03-23T00:16:23;12.80;99.90
75893;DHT22;64572;50.950;3.676;2023-03-23T00:18:59;12.80;99.90
75893;DHT22;64572;50.950;3.676;2023-03-23T00:21:29;12.70;99.90
75893;DHT22;64572;50.950;3.676;2023-03-23T00:24:09;12.80;99.90
75893;DHT22;64572;50.950;3.676;2023-03-23T00:26:36;12.80;99.90
75893;DHT22;64572;50.950;3.676;2023-03-23T00:29:06;12.80;99.90
75893;DHT22;64572;50.950;3.676;2023-03-23T00:31:33;12.80;99.90
75893;DHT22;64572;50.950;3.676;2023-03-23T00:34:02;12.80;99.90
75893;DHT22;64572;50.950;3.676;2023-03-23T00:36:30;12.70;99.90
75893;DHT22;64572;50.950;3.676;2023-03-23T00:38:57;12.70;99.90
75893;DHT22;64572;50.950;3.676;2023-03-23T00:41:25;12.80;99.90
75893;DHT22;64572;50.950;3.676;2023-03-23T00:43:57;12.80;99.90
75893;DHT22;64572;50.950;3.676;2023-03-23T00:46:25;12.80;99.90
75893;DHT22;64572;50.950;3.676;2023-03-23T00:48:51;12.80;99.90
75893;DHT22;64572;50.950;3.676;2023-03-23T00:51:18;12.80;99.90
75893;DHT22;64572;50.950;3.676;2023-03-23T00:53:44;12.80;99.90
75893;DHT22;64572;50.950;3.676;2023-03-23T00:56:10;12.80;99.90
75893;DHT22;64572;50.950;3.676;2023-03-23T00:58:36;12.70;99.90
75893;DHT22;64572;50.950;3.676;2023-03-23T01:01:03;12.60;99.90
75893;DHT22;64572;50.950;3.676;2023-03-23T01:03:29;12.60;99.90
75893;DHT22;64572;50.950;3.676;2023-03-23T01:05:55;12.60;99.90
75893;DHT22;64572;50.950;3.676;2023-03-23T01:08:22;12.70;99.90
75893;DHT22;64572;50.950;3.676;2023-03-23T01:10:49;12.70;99.90
75893;DHT22;64572;50.950;3.676;2023-03-23T01:13:15;12.70;99.90
75893;DHT22;64572;50.950;3.676;2023-03-23T01:15:41;12.80;99.90
75893;DHT22;64572;50.950;3.676;2023-03-23T01:18:07;12.70;99.90
75893;DHT22;64572;50.950;3.676;2023-03-23T01:20:35;12.70;99.90
75893;DHT22;64572;50.950;3.676;2023-03-23T01:23:01;12.70;99.90
75893;DHT22;64572;50.950;3.676;2023-03-23T01:25:32;12.60;99.90
75893;DHT22;64572;50.950;3.676;2023-03-23T01:27:58;12.70;99.90
75893;DHT22;64572;50.950;3.676;2023-03-23T01:30:24;12.70;99.90
75893;DHT22;64572;50.950;3.676;2023-03-23T01:32:51;12.70;99.90
75893;DHT22;64572;50.950;3.676;2023-03-23T01:35:17;12.70;99.90
75893;DHT22;64572;50.950;3.676;2023-03-23T01:37:43;12.70;99.90
75893;DHT22;64572;50.950;3.676;2023-03-23T01:40:09;12.70;99.90
75893;DHT22;64572;50.950;3.676;2023-03-23T01:42:37;12.70;99.90
75893;DHT22;64572;50.950;3.676;2023-03-23T01:45:23;12.70;99.90
75893;DHT22;64572;50.950;3.676;2023-03-23T01:47:55;12.70;99.90
75893;DHT22;64572;50.950;3.676;2023-03-23T01:50:23;12.80;99.90
75893;DHT22;64572;50.950;3.676;2023-03-23T01:52:52;12.80;99.90
75893;DHT22;64572;50.950;3.676;2023-03-23T01:55:18;12.80;99.90
75893;DHT22;64572;50.950;3.676;2023-03-23T01:57:45;12.80;99.90
75893;DHT22;64572;50.950;3.676;2023-03-23T02:00:11;12.80;99.90
75893;DHT22;64572;50.950;3.676;2023-03-23T02:02:41;12.80;99.90
75893;DHT22;64572;50.950;3.676;2023-03-23T02:05:14;12.70;99.90
75893;DHT22;64572;50.950;3.676;2023-03-23T02:07:41;12.80;99.90
75893;DHT22;64572;50.950;3.676;2023-03-23T02:10:07;12.80;99.90
75893;DHT22;64572;50.950;3.676;2023-03-23T02:12:33;12.80;99.90
75893;DHT22;64572;50.950;3.676;2023-03-23T02:14:58;12.80;99.90
75893;DHT22;64572;50.950;3.676;2023-03-23T02:17:36;12.80;99.90
75893;DHT22;64572;50.950;3.676;2023-03-23T02:22:48;12.70;99.90
75893;DHT22;64572;50.950;3.676;2023-03-23T02:28:16;12.80;99.90
75893;DHT22;64572;50.950;3.676;2023-03-23T02:30:54;12.80;99.90
75893;DHT22;64572;50.950;3.676;2023-03-23T02:39:09;12.80;99.90
75893;DHT22;64572;50.950;3.676;2023-03-23T02:41:45;12.80;99.90
75893;DHT22;64572;50.950;3.676;2023-03-23T02:44:13;12.70;99.90
75893;DHT22;64572;50.950;3.676;2023-03-23T02:46:40;12.80;99.90
75893;DHT22;64572;50.950;3.676;2023-03-23T02:49:08;12.70;99.90
75893;DHT22;64572;50.950;3.676;2023-03-23T02:51:35;12.70;99.90
75893;DHT22;64572;50.950;3.676;2023-03-23T02:54:03;12.80;99.90
75893;DHT22;64572;50.950;3.676;2023-03-23T02:56:29;12.80;99.90
75893;DHT22;64572;50.950;3.676;2023-03-23T02:58:58;12.80;99.90
75893;DHT22;64572;50.950;3.676;2023-03-23T03:04:07;12.80;99.90
75893;DHT22;64572;50.950;3.676;2023-03-23T03:07:00;12.80;99.90
75893;DHT22;64572;50.950;3.676;2023-03-23T03:10:10;12.70;99.90
75893;DHT22;64572;50.950;3.676;2023-03-23T03:12:43;12.80;99.90
75893;DHT22;64572;50.950;3.676;2023-03-23T03:17:39;12.70;99.90
75893;DHT22;64572;50.950;3.676;2023-03-23T03:20:07;12.80;99.90
75893;DHT22;64572;50.950;3.676;2023-03-23T03:22:38;12.80;99.90
75893;DHT22;64572;50.950;3.676;2023-03-23T03:25:08;12.70;99.90
75893;DHT22;64572;50.950;3.676;2023-03-23T03:27:35;12.70;99.90
75893;DHT22;64572;50.950;3.676;2023-03-23T03:30:04;12.80;99.90
75893;DHT22;64572;50.950;3.676;2023-03-23T03:32:41;12.70;99.90
75893;DHT22;64572;50.950;3.676;2023-03-23T03:35:09;12.70;99.90
75893;DHT22;64572;50.950;3.676;2023-03-23T03:37:36;12.70;99.90
75893;DHT22;64572;50.950;3.676;2023-03-23T03:40:04;12.60;99.90
75893;DHT22;64572;50.950;3.676;2023-03-23T03:42:37;12.60;99.90
75893;DHT22;64572;50.950;3.676;2023-03-23T03:45:03;12.60;99.90
75893;DHT22;64572;50.950;3.676;2023-03-23T03:47:28;12.60;99.90
75893;DHT22;64572;50.950;3.676;2023-03-23T03:49:54;12.70;99.90
75893;DHT22;64572;50.950;3.676;2023-03-23T03:52:20;12.60;99.90
75893;DHT22;64572;50.950;3.676;2023-03-23T03:54:46;12.60;99.90
75893;DHT22;64572;50.950;3.676;2023-03-23T03:57:12;12.70;99.90
75893;DHT22;64572;50.950;3.676;2023-03-23T03:59:38;12.60;99.90
75893;DHT22;64572;50.950;3.676;2023-03-23T04:02:04;12.50;99.90
75893;DHT22;64572;50.950;3.676;2023-03-23T04:04:29;12.50;99.90
75893;DHT22;64572;50.950;3.676;2023-03-23T04:06:55;12.50;99.90
75893;DHT22;64572;50.950;3.676;2023-03-23T04:09:22;12.50;99.90
75893;DHT22;64572;50.950;3.676;2023-03-23T04:11:48;12.50;99.90
75893;DHT22;64572;50.950;3.676;2023-03-23T04:14:14;12.50;99.90
75893;DHT22;64572;50.950;3.676;2023-03-23T04:16:39;12.50;99.90
75893;DHT22;64572;50.950;3.676;2023-03-23T04:19:06;12.40;99.90
75893;DHT22;64572;50.950;3.676;2023-03-23T04:21:32;12.40;99.90
75893;DHT22;64572;50.950;3.676;2023-03-23T04:23:57;12.30;99.90
75893;DHT22;64572;50.950;3.676;2023-03-23T04:26:28;12.30;99.90
75893;DHT22;64572;50.950;3.676;2023-03-23T04:28:56;12.40;99.90
75893;DHT22;64572;50.950;3.676;2023-03-23T04:31:22;12.40;99.90
75893;DHT22;64572;50.950;3.676;2023-03-23T04:33:50;12.40;99.90
75893;DHT22;64572;50.950;3.676;2023-03-23T04:36:18;12.50;99.90
75893;DHT22;64572;50.950;3.676;2023-03-23T04:38:43;12.50;99.90
75893;DHT22;64572;50.950;3.676;2023-03-23T04:41:09;12.40;99.90
75893;DHT22;64572;50.950;3.676;2023-03-23T04:43:35;12.50;99.90
75893;DHT22;64572;50.950;3.676;2023-03-23T04:46:07;12.40;99.90
75893;DHT22;64572;50.950;3.676;2023-03-23T04:48:36;12.40;99.90
75893;DHT22;64572;50.950;3.676;2023-03-23T04:51:05;12.40;99.90
75893;DHT22;64572;50.950;3.676;2023-03-23T04:53:32;12.40;99.90
75893;DHT22;64572;50.950;3.676;2023-03-23T04:55:57;12.40;99.90
75893;DHT22;64572;50.950;3.676;2023-03-23T04:58:23;12.30;99.90
75893;DHT22;64572;50.950;3.676;2023-03-23T05:00:50;12.10;99.90
75893;DHT22;64572;50.950;3.676;2023-03-23T05:03:17;11.90;99.90
75893;DHT22;64572;50.950;3.676;2023-03-23T05:05:43;11.70;99.90
75893;DHT22;64572;50.950;3.676;2023-03-23T05:08:15;11.70;99.90
75893;DHT22;64572;50.950;3.676;2023-03-23T05:10:41;11.50;99.90
75893;DHT22;64572;50.950;3.676;2023-03-23T05:13:06;11.50;99.90
75893;DHT22;64572;50.950;3.676;2023-03-23T05:15:32;11.40;99.90
75893;DHT22;64572;50.950;3.676;2023-03-23T05:17:58;11.40;99.90
75893;DHT22;64572;50.950;3.676;2023-03-23T05:20:24;11.40;99.90
75893;DHT22;64572;50.950;3.676;2023-03-23T05:22:51;11.40;99.90
75893;DHT22;64572;50.950;3.676;2023-03-23T05:25:18;11.30;99.90
75893;DHT22;64572;50.950;3.676;2023-03-23T05:27:48;11.30;99.90
75893;DHT22;64572;50.950;3.676;2023-03-23T05:30:18;11.40;99.90
75893;DHT22;64572;50.950;3.676;2023-03-23T05:32:44;11.40;99.90
75893;DHT22;64572;50.950;3.676;2023-03-23T05:35:11;11.40;99.90
75893;DHT22;64572;50.950;3.676;2023-03-23T05:37:37;11.40;99.90
75893;DHT22;64572;50.950;3.676;2023-03-23T05:40:04;11.30;99.90
75893;DHT22;64572;50.950;3.676;2023-03-23T05:42:35;11.00;99.90
75893;DHT22;64572;50.950;3.676;2023-03-23T05:45:05;10.80;99.90
75893;DHT22;64572;50.950;3.676;2023-03-23T05:47:31;10.50;99.90
75893;DHT22;64572;50.950;3.676;2023-03-23T05:49:57;10.40;99.90
75893;DHT22;64572;50.950;3.676;2023-03-23T05:52:24;10.20;99.90
75893;DHT22;64572;50.950;3.676;2023-03-23T05:54:51;10.20;99.90
75893;DHT22;64572;50.950;3.676;2023-03-23T05:57:17;10.10;99.90
75893;DHT22;64572;50.950;3.676;2023-03-23T05:59:44;10.10;99.90
75893;DHT22;64572;50.950;3.676;2023-03-23T06:02:11;10.00;99.90
75893;DHT22;64572;50.950;3.676;2023-03-23T06:04:36;10.00;99.90
75893;DHT22;64572;50.950;3.676;2023-03-23T06:07:03;10.00;99.90
75893;DHT22;64572;50.950;3.676;2023-03-23T06:09:29;9.90;99.90
75893;DHT22;64572;50.950;3.676;2023-03-23T06:11:56;9.90;99.90
75893;DHT22;64572;50.950;3.676;2023-03-23T06:14:21;9.90;99.90
75893;DHT22;64572;50.950;3.676;2023-03-23T06:16:47;9.90;99.90
75893;DHT22;64572;50.950;3.676;2023-03-23T06:19:13;9.90;99.90
75893;DHT22;64572;50.950;3.676;2023-03-23T06:21:40;9.90;99.90
75893;DHT22;64572;50.950;3.676;2023-03-23T06:24:05;9.90;99.90
75893;DHT22;64572;50.950;3.676;2023-03-23T06:26:37;9.80;99.90
75893;DHT22;64572;50.950;3.676;2023-03-23T06:29:05;9.90;99.90
75893;DHT22;64572;50.950;3.676;2023-03-23T06:31:40;9.90;99.90
75893;DHT22;64572;50.950;3.676;2023-03-23T06:34:07;9.90;99.90
75893;DHT22;64572;50.950;3.676;2023-03-23T06:36:34;9.90;99.90
75893;DHT22;64572;50.950;3.676;2023-03-23T06:39:00;9.90;99.90
75893;DHT22;64572;50.950;3.676;2023-03-23T06:41:26;9.90;99.90
75893;DHT22;64572;50.950;3.676;2023-03-23T06:43:52;9.90;99.90
75893;DHT22;64572;50.950;3.676;2023-03-23T06:46:18;10.00;99.90
75893;DHT22;64572;50.950;3.676;2023-03-23T06:48:43;10.00;99.90
75893;DHT22;64572;50.950;3.676;2023-03-23T06:51:09;10.00;99.90
75893;DHT22;64572;50.950;3.676;2023-03-23T06:53:35;10.10;99.90
75893;DHT22;64572;50.950;3.676;2023-03-23T06:56:01;10.10;99.90
75893;DHT22;64572;50.950;3.676;2023-03-23T06:58:27;10.10;99.90
75893;DHT22;64572;50.950;3.676;2023-03-23T07:00:56;10.10;99.90
75893;DHT22;64572;50.950;3.676;2023-03-23T07:03:22;10.10;99.90
75893;DHT22;64572;50.950;3.676;2023-03-23T07:05:48;10.10;99.90
75893;DHT22;64572;50.950;3.676;2023-03-23T07:08:15;10.10;99.90
75893;DHT22;64572;50.950;3.676;2023-03-23T07:10:41;10.10;99.90
75893;DHT22;64572;50.950;3.676;2023-03-23T07:13:06;10.10;99.90
75893;DHT22;64572;50.950;3.676;2023-03-23T07:15:32;10.10;99.90
75893;DHT22;64572;50.950;3.676;2023-03-23T07:17:57;10.00;99.90
75893;DHT22;64572;50.950;3.676;2023-03-23T07:20:23;10.00;99.90
75893;DHT22;64572;50.950;3.676;2023-03-23T07:22:49;10.10;99.90
75893;DHT22;64572;50.950;3.676;2023-03-23T07:25:17;10.10;99.90
75893;DHT22;64572;50.950;3.676;2023-03-23T07:27:44;10.20;99.90
75893;DHT22;64572;50.950;3.676;2023-03-23T07:30:10;10.20;99.90
75893;DHT22;64572;50.950;3.676;2023-03-23T07:32:36;10.20;99.90
75893;DHT22;64572;50.950;3.676;2023-03-23T07:35:02;10.30;99.90
75893;DHT22;64572;50.950;3.676;2023-03-23T07:37:29;10.30;99.90
75893;DHT22;64572;50.950;3.676;2023-03-23T07:39:55;10.40;99.90
75893;DHT22;64572;50.950;3.676;2023-03-23T07:42:21;10.40;99.90
75893;DHT22;64572;50.950;3.676;2023-03-23T07:44:46;10.50;99.90
75893;DHT22;64572;50.950;3.676;2023-03-23T07:47:12;10.60;99.90
75893;DHT22;64572;50.950;3.676;2023-03-23T07:49:38;10.50;99.90
75893;DHT22;64572;50.950;3.676;2023-03-23T07:52:04;10.50;99.90
75893;DHT22;64572;50.950;3.676;2023-03-23T07:54:30;10.50;99.90
75893;DHT22;64572;50.950;3.676;2023-03-23T07:56:56;10.60;99.90
75893;DHT22;64572;50.950;3.676;2023-03-23T07:59:22;10.70;99.90
75893;DHT22;64572;50.950;3.676;2023-03-23T08:01:47;10.70;99.90
75893;DHT22;64572;50.950;3.676;2023-03-23T08:04:13;10.70;99.90
75893;DHT22;64572;50.950;3.676;2023-03-23T08:06:40;10.70;99.90
75893;DHT22;64572;50.950;3.676;2023-03-23T08:09:06;10.70;99.90
75893;DHT22;64572;50.950;3.676;2023-03-23T08:11:37;10.70;99.90
75893;DHT22;64572;50.950;3.676;2023-03-23T08:14:04;10.70;99.90
75893;DHT22;64572;50.950;3.676;2023-03-23T08:16:31;10.80;99.90
75893;DHT22;64572;50.950;3.676;2023-03-23T08:18:57;10.90;99.90
75893;DHT22;64572;50.950;3.676;2023-03-23T08:21:23;11.00;99.90
75893;DHT22;64572;50.950;3.676;2023-03-23T08:23:49;11.10;99.90
75893;DHT22;64572;50.950;3.676;2023-03-23T08:26:15;11.20;99.90
75893;DHT22;64572;50.950;3.676;2023-03-23T08:28:42;11.20;99.90
75893;DHT22;64572;50.950;3.676;2023-03-23T08:31:11;11.30;99.90
75893;DHT22;64572;50.950;3.676;2023-03-23T08:33:37;11.40;99.90
75893;DHT22;64572;50.950;3.676;2023-03-23T08:36:03;11.50;99.90
75893;DHT22;64572;50.950;3.676;2023-03-23T08:38:30;11.70;99.90
75893;DHT22;64572;50.950;3.676;2023-03-23T08:41:04;11.70;99.90
75893;DHT22;64572;50.950;3.676;2023-03-23T08:43:34;11.80;99.90
75893;DHT22;64572;50.950;3.676;2023-03-23T08:46:00;11.90;99.90
75893;DHT22;64572;50.950;3.676;2023-03-23T08:48:32;12.00;99.90
75893;DHT22;64572;50.950;3.676;2023-03-23T08:50:59;12.50;99.90
75893;DHT22;64572;50.950;3.676;2023-03-23T08:53:26;12.90;99.90
75893;DHT22;64572;50.950;3.676;2023-03-23T08:55:55;13.40;99.90
75893;DHT22;64572;50.950;3.676;2023-03-23T08:58:21;14.00;99.90
75893;DHT22;64572;50.950;3.676;2023-03-23T09:00:48;14.10;99.90
75893;DHT22;64572;50.950;3.676;2023-03-23T09:03:13;14.40;99.90
75893;DHT22;64572;50.950;3.676;2023-03-23T09:05:40;15.20;99.30
75893;DHT22;64572;50.950;3.676;2023-03-23T09:08:11;15.70;98.40
75893;DHT22;64572;50.950;3.676;2023-03-23T09:10:38;15.60;98.30
75893;DHT22;64572;50.950;3.676;2023-03-23T09:13:04;16.90;96.10
75893;DHT22;64572;50.950;3.676;2023-03-23T09:15:30;17.70;92.60
75893;DHT22;64572;50.950;3.676;2023-03-23T09:17:56;18.70;90.80
75893;DHT22;64572;50.950;3.676;2023-03-23T09:20:24;21.00;81.30
75893;DHT22;64572;50.950;3.676;2023-03-23T09:22:53;20.60;78.80
75893;DHT22;64572;50.950;3.676;2023-03-23T09:25:21;20.90;78.20
75893;DHT22;64572;50.950;3.676;2023-03-23T09:27:58;19.30;81.00
75893;DHT22;64572;50.950;3.676;2023-03-23T09:30:29;18.60;89.30
75893;DHT22;64572;50.950;3.676;2023-03-23T09:32:56;18.90;88.90
75893;DHT22;64572;50.950;3.676;2023-03-23T09:35:23;18.70;87.40
75893;DHT22;64572;50.950;3.676;2023-03-23T09:37:51;19.60;87.60
75893;DHT22;64572;50.950;3.676;2023-03-23T09:40:26;18.20;89.60
75893;DHT22;64572;50.950;3.676;2023-03-23T09:50:23;16.00;96.30
75893;DHT22;64572;50.950;3.676;2023-03-23T09:52:59;16.20;96.40
75893;DHT22;64572;50.950;3.676;2023-03-23T09:55:26;15.80;97.00
75893;DHT22;64572;50.950;3.676;2023-03-23T10:01:06;16.20;95.80
75893;DHT22;64572;50.950;3.676;2023-03-23T10:03:41;15.90;96.70
75893;DHT22;64572;50.950;3.676;2023-03-23T10:06:12;15.20;99.10
75893;DHT22;64572;50.950;3.676;2023-03-23T10:09:04;15.10;99.90
75893;DHT22;64572;50.950;3.676;2023-03-23T10:11:49;14.70;99.90
75893;DHT22;64572;50.950;3.676;2023-03-23T10:17:13;15.00;99.90
75893;DHT22;64572;50.950;3.676;2023-03-23T10:19:52;15.60;98.90
75893;DHT22;64572;50.950;3.676;2023-03-23T10:22:31;15.60;98.20
75893;DHT22;64572;50.950;3.676;2023-03-23T10:28:19;15.40;99.10
75893;DHT22;64572;50.950;3.676;2023-03-23T10:30:51;15.40;99.50
75893;DHT22;64572;50.950;3.676;2023-03-23T10:33:23;15.10;99.90
75893;DHT22;64572;50.950;3.676;2023-03-23T10:38:36;14.90;99.90
75893;DHT22;64572;50.950;3.676;2023-03-23T10:41:15;15.20;99.90
75893;DHT22;64572;50.950;3.676;2023-03-23T10:43:42;17.20;95.50
75893;DHT22;64572;50.950;3.676;2023-03-23T10:48:51;15.80;97.90
75893;DHT22;64572;50.950;3.676;2023-03-23T10:51:23;17.60;94.30
75893;DHT22;64572;50.950;3.676;2023-03-23T10:53:57;18.30;91.40
75893;DHT22;64572;50.950;3.676;2023-03-23T10:56:42;18.40;91.90
75893;DHT22;64572;50.950;3.676;2023-03-23T10:59:19;17.20;93.80
75893;DHT22;64572;50.950;3.676;2023-03-23T11:01:50;16.20;97.00
75893;DHT22;64572;50.950;3.676;2023-03-23T11:04:17;15.40;97.90
75893;DHT22;64572;50.950;3.676;2023-03-23T11:06:47;14.90;99.60
75893;DHT22;64572;50.950;3.676;2023-03-23T11:09:16;14.90;99.90
75893;DHT22;64572;50.950;3.676;2023-03-23T11:11:51;15.10;99.40
75893;DHT22;64572;50.950;3.676;2023-03-23T11:14:36;16.10;97.00
75893;DHT22;64572;50.950;3.676;2023-03-23T11:17:05;15.70;97.80
75893;DHT22;64572;50.950;3.676;2023-03-23T11:19:45;15.20;98.70
75893;DHT22;64572;50.950;3.676;2023-03-23T11:22:21;15.20;99.10
75893;DHT22;64572;50.950;3.676;2023-03-23T11:24:53;15.00;99.90
75893;DHT22;64572;50.950;3.676;2023-03-23T11:27:19;15.10;99.90
75893;DHT22;64572;50.950;3.676;2023-03-23T11:29:55;14.70;99.90
75893;DHT22;64572;50.950;3.676;2023-03-23T11:32:30;14.40;99.90
75893;DHT22;64572;50.950;3.676;2023-03-23T11:35:02;14.00;99.90
75893;DHT22;64572;50.950;3.676;2023-03-23T11:37:34;14.10;99.90
75893;DHT22;64572;50.950;3.676;2023-03-23T11:45:16;14.90;99.80
75893;DHT22;64572;50.950;3.676;2023-03-23T11:58:34;14.40;99.90
75893;DHT22;64572;50.950;3.676;2023-03-23T12:01:11;14.00;99.90
75893;DHT22;64572;50.950;3.676;2023-03-23T12:06:29;15.70;99.90
75893;DHT22;64572;50.950;3.676;2023-03-23T12:09:03;15.90;99.90
75893;DHT22;64572;50.950;3.676;2023-03-23T12:12:00;15.50;99.40
75893;DHT22;64572;50.950;3.676;2023-03-23T12:22:24;15.70;98.40
75893;DHT22;64572;50.950;3.676;2023-03-23T12:33:58;14.30;99.90
75893;DHT22;64572;50.950;3.676;2023-03-23T12:44:41;13.30;99.90
75893;DHT22;64572;50.950;3.676;2023-03-23T12:49:55;13.40;99.90
75893;DHT22;64572;50.950;3.676;2023-03-23T12:58:13;13.90;99.90
75893;DHT22;64572;50.950;3.676;2023-03-23T13:00:59;14.00;99.90
75893;DHT22;64572;50.950;3.676;2023-03-23T13:03:46;14.10;99.90
75893;DHT22;64572;50.950;3.676;2023-03-23T13:06:23;14.10;99.90
75893;DHT22;64572;50.950;3.676;2023-03-23T13:11:22;13.70;99.90
75893;DHT22;64572;50.950;3.676;2023-03-23T13:13:55;13.70;99.90
75893;DHT22;64572;50.950;3.676;2023-03-23T13:16:47;13.70;99.90
75893;DHT22;64572;50.950;3.676;2023-03-23T13:22:01;13.20;99.90
75893;DHT22;64572;50.950;3.676;2023-03-23T13:24:30;13.00;99.90
75893;DHT22;64572;50.950;3.676;2023-03-23T13:26:59;12.80;99.90
75893;DHT22;64572;50.950;3.676;2023-03-23T13:29:27;12.60;99.90
75893;DHT22;64572;50.950;3.676;2023-03-23T13:32:17;12.50;99.90
75893;DHT22;64572;50.950;3.676;2023-03-23T13:34:46;12.60;99.90
75893;DHT22;64572;50.950;3.676;2023-03-23T13:39:54;12.60;99.90
75893;DHT22;64572;50.950;3.676;2023-03-23T13:42:31;12.80;99.90
75893;DHT22;64572;50.950;3.676;2023-03-23T13:45:20;12.90;99.90
75893;DHT22;64572;50.950;3.676;2023-03-23T13:47:47;12.90;99.90
75893;DHT22;64572;50.950;3.676;2023-03-23T13:52:52;13.20;99.90
75893;DHT22;64572;50.950;3.676;2023-03-23T13:55:29;13.30;99.90
75893;DHT22;64572;50.950;3.676;2023-03-23T13:57:57;13.90;99.90
75893;DHT22;64572;50.950;3.676;2023-03-23T14:00:44;14.90;99.90
75893;DHT22;64572;50.950;3.676;2023-03-23T14:03:35;15.70;99.90
75893;DHT22;64572;50.950;3.676;2023-03-23T14:06:07;16.80;99.90
75893;DHT22;64572;50.950;3.676;2023-03-23T14:08:42;15.80;99.90
75893;DHT22;64572;50.950;3.676;2023-03-23T14:11:12;16.80;98.80
75893;DHT22;64572;50.950;3.676;2023-03-23T14:14:01;16.50;99.90
75893;DHT22;64572;50.950;3.676;2023-03-23T14:16:44;15.80;99.90
75893;DHT22;64572;50.950;3.676;2023-03-23T14:21:49;14.70;99.90
75893;DHT22;64572;50.950;3.676;2023-03-23T14:24:19;14.70;99.90
75893;DHT22;64572;50.950;3.676;2023-03-23T14:26:45;14.60;99.90
75893;DHT22;64572;50.950;3.676;2023-03-23T14:29:13;14.40;99.90
75893;DHT22;64572;50.950;3.676;2023-03-23T14:31:40;14.40;99.90
75893;DHT22;64572;50.950;3.676;2023-03-23T14:34:18;14.40;99.90
75893;DHT22;64572;50.950;3.676;2023-03-23T14:36:45;15.10;99.90
75893;DHT22;64572;50.950;3.676;2023-03-23T14:41:46;15.20;99.90
75893;DHT22;64572;50.950;3.676;2023-03-23T14:44:18;15.00;99.90
75893;DHT22;64572;50.950;3.676;2023-03-23T14:46:46;14.90;99.90
75893;DHT22;64572;50.950;3.676;2023-03-23T14:49:16;14.80;99.90
75893;DHT22;64572;50.950;3.676;2023-03-23T14:51:51;15.80;99.90
75893;DHT22;64572;50.950;3.676;2023-03-23T14:54:25;17.00;99.60
75893;DHT22;64572;50.950;3.676;2023-03-23T14:56:52;17.70;97.20
75893;DHT22;64572;50.950;3.676;2023-03-23T14:59:18;17.60;96.00
75893;DHT22;64572;50.950;3.676;2023-03-23T15:01:46;17.60;96.70
75893;DHT22;64572;50.950;3.676;2023-03-23T15:04:21;18.10;96.00
75893;DHT22;64572;50.950;3.676;2023-03-23T15:07:08;18.60;92.90
75893;DHT22;64572;50.950;3.676;2023-03-23T15:09:39;17.50;96.40
75893;DHT22;64572;50.950;3.676;2023-03-23T15:12:21;17.10;96.70
75893;DHT22;64572;50.950;3.676;2023-03-23T15:14:50;17.60;96.20
75893;DHT22;64572;50.950;3.676;2023-03-23T15:17:28;18.50;94.10
75893;DHT22;64572;50.950;3.676;2023-03-23T15:19:55;17.90;94.30
75893;DHT22;64572;50.950;3.676;2023-03-23T15:22:26;17.30;96.00
75893;DHT22;64572;50.950;3.676;2023-03-23T15:24:53;16.80;97.20
75893;DHT22;64572;50.950;3.676;2023-03-23T15:27:33;16.20;99.20
75893;DHT22;64572;50.950;3.676;2023-03-23T15:30:11;16.00;99.20
75893;DHT22;64572;50.950;3.676;2023-03-23T15:32:42;15.90;99.20
75893;DHT22;64572;50.950;3.676;2023-03-23T15:35:21;15.70;99.90
75893;DHT22;64572;50.950;3.676;2023-03-23T15:40:56;15.30;99.90
75893;DHT22;64572;50.950;3.676;2023-03-23T15:43:32;14.60;99.90
75893;DHT22;64572;50.950;3.676;2023-03-23T15:46:19;14.10;99.90
75893;DHT22;64572;50.950;3.676;2023-03-23T15:48:47;13.90;99.90
75893;DHT22;64572;50.950;3.676;2023-03-23T15:51:14;13.80;99.90
75893;DHT22;64572;50.950;3.676;2023-03-23T15:53:41;13.80;99.90
75893;DHT22;64572;50.950;3.676;2023-03-23T15:56:08;13.90;99.90
75893;DHT22;64572;50.950;3.676;2023-03-23T15:58:36;13.90;99.90
75893;DHT22;64572;50.950;3.676;2023-03-23T16:01:05;13.90;99.90
75893;DHT22;64572;50.950;3.676;2023-03-23T16:06:11;14.00;99.90
75893;DHT22;64572;50.950;3.676;2023-03-23T16:08:37;14.20;99.90
75893;DHT22;64572;50.950;3.676;2023-03-23T16:11:12;14.30;99.90
75893;DHT22;64572;50.950;3.676;2023-03-23T16:13:38;14.40;99.90
75893;DHT22;64572;50.950;3.676;2023-03-23T16:16:05;14.50;99.90
75893;DHT22;64572;50.950;3.676;2023-03-23T16:18:33;14.60;99.90
75893;DHT22;64572;50.950;3.676;2023-03-23T16:20:58;14.70;99.90
75893;DHT22;64572;50.950;3.676;2023-03-23T16:23:25;14.70;99.90
75893;DHT22;64572;50.950;3.676;2023-03-23T16:25:51;14.70;99.90
75893;DHT22;64572;50.950;3.676;2023-03-23T16:28:17;14.60;99.90
75893;DHT22;64572;50.950;3.676;2023-03-23T16:30:45;14.60;99.90
75893;DHT22;64572;50.950;3.676;2023-03-23T16:33:11;14.60;99.90
75893;DHT22;64572;50.950;3.676;2023-03-23T16:35:37;14.70;99.90
75893;DHT22;64572;50.950;3.676;2023-03-23T16:38:03;14.70;99.90
75893;DHT22;64572;50.950;3.676;2023-03-23T16:40:29;14.70;99.90
75893;DHT22;64572;50.950;3.676;2023-03-23T16:42:55;14.70;99.90
75893;DHT22;64572;50.950;3.676;2023-03-23T16:45:21;14.60;99.90
75893;DHT22;64572;50.950;3.676;2023-03-23T16:47:48;14.70;99.90
75893;DHT22;64572;50.950;3.676;2023-03-23T16:50:15;14.60;99.90
75893;DHT22;64572;50.950;3.676;2023-03-23T16:52:43;14.60;99.90
75893;DHT22;64572;50.950;3.676;2023-03-23T16:55:12;14.60;99.90
75893;DHT22;64572;50.950;3.676;2023-03-23T16:57:38;14.60;99.90
75893;DHT22;64572;50.950;3.676;2023-03-23T17:00:08;14.70;99.90
75893;DHT22;64572;50.950;3.676;2023-03-23T17:02:36;14.70;99.90
75893;DHT22;64572;50.950;3.676;2023-03-23T17:05:04;14.70;99.90
75893;DHT22;64572;50.950;3.676;2023-03-23T17:07:30;14.80;99.90
75893;DHT22;64572;50.950;3.676;2023-03-23T17:09:56;14.70;99.90
75893;DHT22;64572;50.950;3.676;2023-03-23T17:12:22;14.70;99.90
75893;DHT22;64572;50.950;3.676;2023-03-23T17:14:47;14.70;99.90
75893;DHT22;64572;50.950;3.676;2023-03-23T17:17:13;14.70;99.90
75893;DHT22;64572;50.950;3.676;2023-03-23T17:19:38;14.70;99.90
75893;DHT22;64572;50.950;3.676;2023-03-23T17:22:05;14.70;99.90
75893;DHT22;64572;50.950;3.676;2023-03-23T17:24:30;14.70;99.90
75893;DHT22;64572;50.950;3.676;2023-03-23T17:26:56;14.80;99.90
75893;DHT22;64572;50.950;3.676;2023-03-23T17:29:22;14.70;99.90
75893;DHT22;64572;50.950;3.676;2023-03-23T17:31:48;14.60;99.90
75893;DHT22;64572;50.950;3.676;2023-03-23T17:34:15;14.70;99.90
75893;DHT22;64572;50.950;3.676;2023-03-23T17:36:41;14.70;99.90
75893;DHT22;64572;50.950;3.676;2023-03-23T17:39:07;14.70;99.90